Time;durP1;ratioP1;P1;durP2;ratioP2;P2;SDS_P1;SDS_P2;PMS_P1;PMS_P2;Temp;Humidity;BMP_temperature;BMP_pressure;BME280_temperature;BME280_humidity;BME280_pressure;Samples;Min_cycle;Max_cycle;Signal;HPM_P1;HPM_P2
2021/05/05 00:00:33;;;;;;;2.30;2.20;;;;;;;;;;5031617;28;20046;-44
2021/05/05 00:02:59;;;;;;;2.58;1.70;;;;;;;;;;5029534;28;20045;-44
2021/05/05 00:05:26;;;;;;;2.10;1.70;;;;;;;;;;5014878;28;20041;-44
2021/05/05 00:07:52;;;;;;;2.35;2.08;;;;;;;;;;5031675;28;20054;-46
2021/05/05 00:10:18;;;;;;;1.70;1.60;;;;;;;;;;5029839;28;20537;-43
2021/05/05 00:12:44;;;;;;;1.83;1.63;;;;;;;;;;5020763;28;20508;-45
2021/05/05 00:15:15;;;;;;;2.78;2.67;;;;;;;;;;5026684;28;20054;-44
2021/05/05 00:17:41;;;;;;;2.00;2.00;;;;;;;;;;5016905;28;20042;-44
2021/05/05 00:20:08;;;;;;;3.10;3.00;;;;;;;;;;5021580;28;20069;-44
2021/05/05 00:22:34;;;;;;;2.35;2.25;;;;;;;;;;5025863;28;20485;-44
2021/05/05 00:25:02;;;;;;;3.67;3.38;;;;;;;;;;5023771;28;20038;-45
2021/05/05 00:27:28;;;;;;;3.85;3.75;;;;;;;;;;5025359;28;20045;-46
2021/05/05 00:29:54;;;;;;;2.45;2.38;;;;;;;;;;5016702;28;20038;-44
2021/05/05 00:32:20;;;;;;;2.80;2.72;;;;;;;;;;5029475;28;20063;-44
2021/05/05 00:34:47;;;;;;;3.08;2.97;;;;;;;;;;5029402;28;20033;-44
2021/05/05 00:37:13;;;;;;;2.65;2.47;;;;;;;;;;5029630;28;20071;-44
2021/05/05 00:39:40;;;;;;;2.40;2.20;;;;;;;;;;5029782;28;20455;-44
2021/05/05 00:42:07;;;;;;;2.40;2.30;;;;;;;;;;5030285;28;20041;-44
2021/05/05 00:44:33;;;;;;;1.70;1.70;;;;;;;;;;5031205;28;20037;-44
2021/05/05 00:47:00;;;;;;;3.13;2.20;;;;;;;;;;5027618;28;20045;-43
2021/05/05 00:49:27;;;;;;;2.13;2.13;;;;;;;;;;5022668;28;20036;-45
2021/05/05 00:51:53;;;;;;;3.47;3.17;;;;;;;;;;5028740;28;20033;-44
2021/05/05 00:54:20;;;;;;;2.58;2.47;;;;;;;;;;5031230;28;20041;-46
2021/05/05 00:56:46;;;;;;;2.83;2.83;;;;;;;;;;5024851;28;20052;-43
2021/05/05 00:59:13;;;;;;;3.78;3.58;;;;;;;;;;5030139;28;20046;-44
2021/05/05 01:01:40;;;;;;;2.17;2.17;;;;;;;;;;5023863;28;20045;-44
2021/05/05 01:04:07;;;;;;;1.98;1.88;;;;;;;;;;5028753;28;20133;-46
2021/05/05 01:06:34;;;;;;;2.17;2.08;;;;;;;;;;5029170;28;20096;-43
2021/05/05 01:09:01;;;;;;;3.38;1.80;;;;;;;;;;5019478;28;20378;-43
2021/05/05 01:11:28;;;;;;;2.10;2.00;;;;;;;;;;5027810;28;20041;-46
2021/05/05 01:13:54;;;;;;;2.47;2.45;;;;;;;;;;5012383;28;20072;-45
2021/05/05 01:16:20;;;;;;;1.83;1.80;;;;;;;;;;5030734;28;20033;-44
2021/05/05 01:18:49;;;;;;;2.10;2.00;;;;;;;;;;5028812;28;20703;-45
2021/05/05 01:21:16;;;;;;;1.90;1.80;;;;;;;;;;5029792;28;20033;-44
2021/05/05 01:23:42;;;;;;;1.85;1.63;;;;;;;;;;5026793;28;20418;-43
2021/05/05 01:26:09;;;;;;;1.50;1.50;;;;;;;;;;5013259;28;20041;-44
2021/05/05 01:28:38;;;;;;;1.85;1.80;;;;;;;;;;5030259;28;20462;-44
2021/05/05 01:31:06;;;;;;;2.22;2.13;;;;;;;;;;5028900;28;20052;-45
2021/05/05 01:33:32;;;;;;;1.63;1.63;;;;;;;;;;5029768;28;20041;-44
2021/05/05 01:35:58;;;;;;;2.40;2.17;;;;;;;;;;5028322;28;20045;-45
2021/05/05 01:38:24;;;;;;;1.85;1.85;;;;;;;;;;5027717;28;20037;-46
2021/05/05 01:40:52;;;;;;;2.22;1.98;;;;;;;;;;5027684;28;20108;-43
2021/05/05 01:43:18;;;;;;;1.40;1.30;;;;;;;;;;5020923;28;20037;-43
2021/05/05 01:45:44;;;;;;;1.77;1.67;;;;;;;;;;5023279;28;20045;-46
2021/05/05 01:48:11;;;;;;;5.05;3.28;;;;;;;;;;5024228;28;20367;-43
2021/05/05 01:50:37;;;;;;;5.63;5.43;;;;;;;;;;5015066;28;20034;-44
2021/05/05 01:53:04;;;;;;;4.00;3.92;;;;;;;;;;5018435;28;20691;-43
2021/05/05 01:55:31;;;;;;;4.57;4.47;;;;;;;;;;5018779;28;20120;-44
2021/05/05 01:57:57;;;;;;;4.45;4.35;;;;;;;;;;5030486;28;20041;-47
2021/05/05 02:00:26;;;;;;;6.80;6.70;;;;;;;;;;5028369;28;20060;-45
2021/05/05 02:02:52;;;;;;;9.70;9.50;;;;;;;;;;5026542;28;20037;-46
2021/05/05 02:05:19;;;;;;;10.27;9.70;;;;;;;;;;5030019;28;20067;-44
2021/05/05 02:07:47;;;;;;;12.38;12.07;;;;;;;;;;5026855;28;20045;-45
2021/05/05 02:10:15;;;;;;;13.38;13.15;;;;;;;;;;5026218;28;20038;-44
2021/05/05 02:12:41;;;;;;;12.10;11.90;;;;;;;;;;5027481;28;20103;-45
2021/05/05 02:15:09;;;;;;;14.35;13.93;;;;;;;;;;5028638;28;20033;-44
2021/05/05 02:17:36;;;;;;;13.85;13.50;;;;;;;;;;5023137;28;20052;-45
2021/05/05 02:20:07;;;;;;;14.35;13.95;;;;;;;;;;5027261;28;20042;-45
2021/05/05 02:22:33;;;;;;;13.93;13.70;;;;;;;;;;5026648;28;20471;-46
2021/05/05 02:25:00;;;;;;;14.20;13.68;;;;;;;;;;5028957;28;20068;-44
2021/05/05 02:27:27;;;;;;;13.65;13.35;;;;;;;;;;5019109;28;20463;-44
2021/05/05 02:29:53;;;;;;;15.02;14.55;;;;;;;;;;5019875;28;20100;-45
2021/05/05 02:32:22;;;;;;;14.15;13.57;;;;;;;;;;5026028;28;20131;-45
2021/05/05 02:34:49;;;;;;;12.75;12.65;;;;;;;;;;5028740;28;20049;-46
2021/05/05 02:37:15;;;;;;;14.93;14.73;;;;;;;;;;5025508;28;20045;-44
2021/05/05 02:39:43;;;;;;;11.77;11.38;;;;;;;;;;5027148;28;20145;-44
2021/05/05 02:42:13;;;;;;;15.25;14.75;;;;;;;;;;5024843;28;20126;-45
2021/05/05 02:44:40;;;;;;;13.15;12.85;;;;;;;;;;5027589;28;20048;-44
2021/05/05 02:47:06;;;;;;;14.00;13.70;;;;;;;;;;5026696;28;20041;-44
2021/05/05 02:49:33;;;;;;;10.55;10.23;;;;;;;;;;5028759;28;20064;-45
2021/05/05 02:51:59;;;;;;;13.95;13.13;;;;;;;;;;5027263;28;20038;-44
2021/05/05 02:54:26;;;;;;;13.02;12.68;;;;;;;;;;5014962;28;20049;-45
2021/05/05 02:56:52;;;;;;;14.07;13.80;;;;;;;;;;5022048;28;20421;-44
2021/05/05 02:59:18;;;;;;;11.35;11.13;;;;;;;;;;5015569;28;20107;-43
2021/05/05 03:01:44;;;;;;;10.38;10.15;;;;;;;;;;5028112;28;20045;-43
2021/05/05 03:04:11;;;;;;;11.48;11.27;;;;;;;;;;5027401;28;20610;-45
2021/05/05 03:06:37;;;;;;;12.85;12.70;;;;;;;;;;5029533;28;20103;-46
2021/05/05 03:09:03;;;;;;;14.80;14.50;;;;;;;;;;5023236;28;20034;-47
2021/05/05 03:11:30;;;;;;;15.80;15.40;;;;;;;;;;5020506;28;20044;-45
2021/05/05 03:13:56;;;;;;;14.48;14.27;;;;;;;;;;5022313;28;20037;-45
2021/05/05 03:16:23;;;;;;;16.13;15.70;;;;;;;;;;5026855;28;20394;-43
2021/05/05 03:18:51;;;;;;;15.55;15.25;;;;;;;;;;5029256;28;20049;-44
2021/05/05 03:21:18;;;;;;;14.90;14.63;;;;;;;;;;5025641;28;20041;-44
2021/05/05 03:23:46;;;;;;;14.90;14.60;;;;;;;;;;5028194;28;20033;-44
2021/05/05 03:26:12;;;;;;;15.45;15.15;;;;;;;;;;5027357;28;20497;-44
2021/05/05 03:28:39;;;;;;;14.32;13.93;;;;;;;;;;5024621;28;20037;-45
2021/05/05 03:31:05;;;;;;;15.80;15.50;;;;;;;;;;5028311;28;20038;-44
2021/05/05 03:33:32;;;;;;;17.00;16.60;;;;;;;;;;5027300;28;20049;-44
2021/05/05 03:35:59;;;;;;;13.07;12.95;;;;;;;;;;5027307;28;20033;-44
2021/05/05 03:38:26;;;;;;;13.98;13.68;;;;;;;;;;5015133;28;20096;-45
2021/05/05 03:40:52;;;;;;;14.02;13.82;;;;;;;;;;5022393;28;20505;-44
2021/05/05 03:43:18;;;;;;;14.73;14.32;;;;;;;;;;5011864;28;20091;-48
2021/05/05 03:45:45;;;;;;;13.73;13.35;;;;;;;;;;5028108;28;20045;-44
2021/05/05 03:48:12;;;;;;;13.43;13.18;;;;;;;;;;5028267;28;20422;-44
2021/05/05 03:50:39;;;;;;;13.00;12.70;;;;;;;;;;5021737;28;20065;-45
2021/05/05 03:53:05;;;;;;;8.60;8.40;;;;;;;;;;5027839;28;20029;-46
2021/05/05 03:55:32;;;;;;;5.03;4.82;;;;;;;;;;5022672;28;20129;-45
2021/05/05 03:57:58;;;;;;;4.65;4.55;;;;;;;;;;5031692;28;20069;-45
2021/05/05 04:00:25;;;;;;;6.22;6.03;;;;;;;;;;5022127;28;20533;-44
2021/05/05 04:02:52;;;;;;;4.63;4.63;;;;;;;;;;5032562;28;20049;-46
2021/05/05 04:05:18;;;;;;;7.88;7.78;;;;;;;;;;5030427;28;20076;-45
2021/05/05 04:07:44;;;;;;;8.73;8.38;;;;;;;;;;5030358;28;20038;-45
2021/05/05 04:10:11;;;;;;;7.80;7.70;;;;;;;;;;5031983;28;20037;-45
2021/05/05 04:12:39;;;;;;;5.57;5.40;;;;;;;;;;5028059;28;20042;-44
2021/05/05 04:15:23;;;;;;;5.93;5.82;;;;;;;;;;5023183;28;20025;-44
2021/05/05 04:18:07;;;;;;;12.73;12.52;;;;;;;;;;5029820;28;20041;-44
2021/05/05 04:20:53;;;;;;;17.30;16.70;;;;;;;;;;5028383;28;20556;-44
2021/05/05 04:23:37;;;;;;;16.88;16.48;;;;;;;;;;5021975;28;20022;-45
2021/05/05 04:26:16;;;;;;;16.02;15.93;;;;;;;;;;5030493;28;20033;-45
2021/05/05 04:28:43;;;;;;;15.05;14.93;;;;;;;;;;5030515;28;20045;-45
2021/05/05 04:31:09;;;;;;;13.68;13.07;;;;;;;;;;5023768;28;20042;-44
2021/05/05 04:33:36;;;;;;;10.80;10.63;;;;;;;;;;5029785;28;20053;-45
2021/05/05 04:36:03;;;;;;;13.40;13.10;;;;;;;;;;5029498;28;20045;-45
2021/05/05 04:38:30;;;;;;;13.38;13.18;;;;;;;;;;5020088;28;20052;-48
2021/05/05 04:40:56;;;;;;;15.00;14.70;;;;;;;;;;5022853;28;20052;-45
2021/05/05 04:43:22;;;;;;;14.75;14.65;;;;;;;;;;5029008;28;20060;-44
2021/05/05 04:45:48;;;;;;;15.68;15.38;;;;;;;;;;5028768;28;20033;-45
2021/05/05 04:48:15;;;;;;;14.45;14.18;;;;;;;;;;5028992;28;20084;-45
2021/05/05 04:50:41;;;;;;;14.50;14.07;;;;;;;;;;5021208;28;20505;-44
2021/05/05 04:53:08;;;;;;;15.57;15.27;;;;;;;;;;5027570;28;20680;-45
2021/05/05 04:55:35;;;;;;;11.45;10.50;;;;;;;;;;5031382;28;20046;-46
2021/05/05 04:58:01;;;;;;;10.93;10.75;;;;;;;;;;5024553;28;20488;-46
2021/05/05 05:00:28;;;;;;;13.05;12.77;;;;;;;;;;5025366;28;20395;-43
2021/05/05 05:02:54;;;;;;;12.88;12.07;;;;;;;;;;5030056;28;20049;-45
2021/05/05 05:05:22;;;;;;;9.35;9.15;;;;;;;;;;5029590;28;20054;-45
2021/05/05 05:07:49;;;;;;;12.43;12.10;;;;;;;;;;5028869;28;20044;-47
2021/05/05 05:10:15;;;;;;;12.57;12.25;;;;;;;;;;5023137;28;20615;-44
2021/05/05 05:12:42;;;;;;;13.95;13.35;;;;;;;;;;5021400;28;20095;-46
2021/05/05 05:15:08;;;;;;;15.48;15.18;;;;;;;;;;5031005;28;20644;-45
2021/05/05 05:17:34;;;;;;;18.38;17.98;;;;;;;;;;5028563;28;20045;-44
2021/05/05 05:20:04;;;;;;;17.95;16.98;;;;;;;;;;5023845;28;20673;-45
2021/05/05 05:22:32;;;;;;;16.73;16.45;;;;;;;;;;5029336;28;20045;-46
2021/05/05 05:24:58;;;;;;;13.70;13.27;;;;;;;;;;5028713;28;20045;-45
2021/05/05 05:27:25;;;;;;;11.23;10.93;;;;;;;;;;5030787;28;20041;-44
2021/05/05 05:29:51;;;;;;;9.65;9.55;;;;;;;;;;5027643;28;20096;-46
2021/05/05 05:32:17;;;;;;;11.75;11.38;;;;;;;;;;5014354;28;20087;-46
2021/05/05 05:34:45;;;;;;;12.32;11.93;;;;;;;;;;5022354;28;20048;-46
2021/05/05 05:37:11;;;;;;;9.43;9.02;;;;;;;;;;5020402;28;20075;-45
2021/05/05 05:39:37;;;;;;;6.95;6.82;;;;;;;;;;5031001;28;20095;-45
2021/05/05 05:42:03;;;;;;;6.18;5.93;;;;;;;;;;5024640;28;20073;-47
2021/05/05 05:44:30;;;;;;;6.47;6.28;;;;;;;;;;5019308;28;20413;-47
2021/05/05 05:46:56;;;;;;;5.43;5.13;;;;;;;;;;5024797;28;20145;-46
2021/05/05 05:49:22;;;;;;;5.05;4.95;;;;;;;;;;5021564;28;20474;-46
2021/05/05 05:51:48;;;;;;;4.82;4.45;;;;;;;;;;5030557;28;20108;-45
2021/05/05 05:54:15;;;;;;;4.65;4.35;;;;;;;;;;5023121;28;20026;-49
2021/05/05 05:56:41;;;;;;;4.78;4.38;;;;;;;;;;5013773;28;20045;-45
2021/05/05 05:59:07;;;;;;;4.28;3.95;;;;;;;;;;5038593;28;20045;-45
2021/05/05 06:01:34;;;;;;;2.83;2.60;;;;;;;;;;5022253;28;20037;-45
2021/05/05 06:04:00;;;;;;;2.90;2.80;;;;;;;;;;5029494;28;20057;-47
2021/05/05 06:06:27;;;;;;;3.53;3.33;;;;;;;;;;5022310;28;20029;-44
2021/05/05 06:08:53;;;;;;;2.95;2.80;;;;;;;;;;5015011;28;20091;-46
2021/05/05 06:11:19;;;;;;;3.05;2.72;;;;;;;;;;5024437;28;20557;-44
2021/05/05 06:13:46;;;;;;;2.13;2.13;;;;;;;;;;5021195;28;20034;-46
2021/05/05 06:16:13;;;;;;;2.13;2.03;;;;;;;;;;5029518;28;20580;-45
2021/05/05 06:18:39;;;;;;;3.53;2.70;;;;;;;;;;5022711;28;20046;-47
2021/05/05 06:21:07;;;;;;;2.20;1.98;;;;;;;;;;5027196;28;20048;-46
2021/05/05 06:23:33;;;;;;;2.35;1.98;;;;;;;;;;5016781;28;20117;-44
2021/05/05 06:25:59;;;;;;;3.03;1.67;;;;;;;;;;5021993;28;20041;-44
2021/05/05 06:28:26;;;;;;;1.50;1.40;;;;;;;;;;5029339;28;20510;-45
2021/05/05 06:30:54;;;;;;;3.00;1.80;;;;;;;;;;5023027;28;20875;-44
2021/05/05 06:33:20;;;;;;;2.97;2.35;;;;;;;;;;5017872;28;20021;-47
2021/05/05 06:35:47;;;;;;;1.50;1.45;;;;;;;;;;5015636;28;20046;-44
2021/05/05 06:38:13;;;;;;;4.65;1.65;;;;;;;;;;5023782;28;20064;-44
2021/05/05 06:40:39;;;;;;;1.88;1.30;;;;;;;;;;5018419;28;20700;-46
2021/05/05 06:43:06;;;;;;;1.80;1.70;;;;;;;;;;5028215;28;20502;-46
2021/05/05 06:45:32;;;;;;;1.40;1.40;;;;;;;;;;5025053;28;20037;-44
2021/05/05 06:47:58;;;;;;;1.70;1.63;;;;;;;;;;5022961;28;20050;-45
2021/05/05 06:50:25;;;;;;;1.10;1.10;;;;;;;;;;5022229;28;20026;-44
2021/05/05 06:52:51;;;;;;;1.95;1.52;;;;;;;;;;5012389;28;20179;-45
2021/05/05 06:55:18;;;;;;;2.40;1.25;;;;;;;;;;5029563;28;20061;-45
2021/05/05 06:57:45;;;;;;;1.65;1.55;;;;;;;;;;5028169;28;20041;-44
2021/05/05 07:00:11;;;;;;;1.73;1.63;;;;;;;;;;5014545;28;20048;-45
2021/05/05 07:02:38;;;;;;;2.20;2.05;;;;;;;;;;5022814;28;20107;-46
2021/05/05 07:05:04;;;;;;;1.30;1.20;;;;;;;;;;5028516;28;20092;-44
2021/05/05 07:07:30;;;;;;;2.15;1.30;;;;;;;;;;5027195;28;20073;-44
2021/05/05 07:09:57;;;;;;;1.35;1.23;;;;;;;;;;5027629;28;20045;-44
2021/05/05 07:12:24;;;;;;;1.33;1.25;;;;;;;;;;5013198;28;20129;-45
2021/05/05 07:14:50;;;;;;;1.33;1.20;;;;;;;;;;5025734;28;20045;-44
2021/05/05 07:17:16;;;;;;;1.88;1.75;;;;;;;;;;5022111;28;20033;-50
2021/05/05 07:19:44;;;;;;;3.33;2.05;;;;;;;;;;5025521;28;20049;-45
2021/05/05 07:22:10;;;;;;;1.80;1.52;;;;;;;;;;5026628;28;20057;-46
2021/05/05 07:24:40;;;;;;;1.70;1.60;;;;;;;;;;5030338;28;20037;-48
2021/05/05 07:27:06;;;;;;;1.77;1.33;;;;;;;;;;5029223;28;20046;-44
2021/05/05 07:29:32;;;;;;;1.40;1.30;;;;;;;;;;5030196;28;20037;-45
2021/05/05 07:31:59;;;;;;;1.35;1.10;;;;;;;;;;5031683;28;20037;-45
2021/05/05 07:34:26;;;;;;;1.20;1.20;;;;;;;;;;5029073;28;20038;-44
2021/05/05 07:36:55;;;;;;;1.92;1.20;;;;;;;;;;5032460;28;20048;-48
2021/05/05 07:47:46;;;;;;;1.52;1.00;;;;;;;;;;5039288;28;20505;-45
2021/05/05 07:50:12;;;;;;;4.13;1.17;;;;;;;;;;5021503;28;20045;-45
2021/05/05 07:52:39;;;;;;;1.02;1.00;;;;;;;;;;5032885;28;20033;-48
2021/05/05 07:55:06;;;;;;;1.52;1.05;;;;;;;;;;5029187;28;20099;-46
2021/05/05 07:57:32;;;;;;;1.00;1.00;;;;;;;;;;5015446;28;20026;-45
2021/05/05 07:59:58;;;;;;;1.00;1.00;;;;;;;;;;5032541;28;20018;-44
2021/05/05 08:02:24;;;;;;;4.90;1.15;;;;;;;;;;5028438;28;20037;-44
2021/05/05 08:04:51;;;;;;;1.50;1.00;;;;;;;;;;5023544;28;20124;-46
2021/05/05 08:07:18;;;;;;;0.90;0.90;;;;;;;;;;5025619;28;20034;-45
2021/05/05 08:09:50;;;;;;;1.00;0.90;;;;;;;;;;5019056;28;20041;-48
2021/05/05 08:12:16;;;;;;;1.95;0.90;;;;;;;;;;5021439;28;20093;-45
2021/05/05 08:14:46;;;;;;;7.68;1.10;;;;;;;;;;5025497;28;20515;-45
2021/05/05 08:17:12;;;;;;;1.85;0.90;;;;;;;;;;5032205;28;20087;-47
2021/05/05 08:19:42;;;;;;;1.30;1.30;;;;;;;;;;5028467;28;20069;-44
2021/05/05 08:22:08;;;;;;;1.80;0.90;;;;;;;;;;5030819;28;20068;-44
2021/05/05 08:24:35;;;;;;;0.90;0.90;;;;;;;;;;5019459;28;20034;-47
2021/05/05 08:27:01;;;;;;;3.05;0.90;;;;;;;;;;5024065;28;20532;-46
2021/05/05 08:29:28;;;;;;;0.90;0.90;;;;;;;;;;5032480;28;20044;-45
2021/05/05 08:31:55;;;;;;;0.90;0.90;;;;;;;;;;5030442;28;20424;-48
2021/05/05 08:34:22;;;;;;;1.05;1.00;;;;;;;;;;5024069;28;20052;-48
2021/05/05 08:36:49;;;;;;;4.18;1.00;;;;;;;;;;5022192;28;20044;-44
2021/05/05 08:39:15;;;;;;;4.03;1.45;;;;;;;;;;5025970;28;20132;-45
2021/05/05 08:41:41;;;;;;;1.00;1.00;;;;;;;;;;5028266;28;20061;-45
2021/05/05 08:44:12;;;;;;;1.17;0.98;;;;;;;;;;5031407;28;20049;-45
2021/05/05 08:46:42;;;;;;;2.80;0.90;;;;;;;;;;5027728;28;20033;-44
2021/05/05 08:49:09;;;;;;;1.00;1.00;;;;;;;;;;5015195;28;20041;-46
2021/05/05 08:51:36;;;;;;;2.50;0.90;;;;;;;;;;5028850;28;20088;-45
2021/05/05 08:54:03;;;;;;;0.90;0.90;;;;;;;;;;5031718;28;20053;-45
2021/05/05 08:56:36;;;;;;;0.93;0.93;;;;;;;;;;5028932;28;20065;-45
2021/05/05 08:59:03;;;;;;;1.40;1.30;;;;;;;;;;5029768;28;20398;-45
2021/05/05 09:01:30;;;;;;;1.38;1.25;;;;;;;;;;5028981;28;20485;-44
2021/05/05 09:03:57;;;;;;;1.10;1.10;;;;;;;;;;5025463;28;20049;-45
2021/05/05 09:06:42;;;;;;;1.02;1.02;;;;;;;;;;5025522;28;20037;-46
2021/05/05 09:09:08;;;;;;;0.90;0.90;;;;;;;;;;5017173;28;20034;-45
2021/05/05 09:11:45;;;;;;;2.28;1.15;;;;;;;;;;5025522;28;20038;-45
2021/05/05 09:14:11;;;;;;;0.90;0.90;;;;;;;;;;5029903;28;20041;-46
2021/05/05 09:16:38;;;;;;;2.30;1.40;;;;;;;;;;5031258;28;20099;-49
2021/05/05 09:19:09;;;;;;;1.60;0.93;;;;;;;;;;5024468;28;20037;-45
2021/05/05 09:21:40;;;;;;;1.42;0.95;;;;;;;;;;5020906;28;20050;-45
2021/05/05 09:24:34;;;;;;;1.08;1.08;;;;;;;;;;5027190;28;20037;-45
2021/05/05 09:27:04;;;;;;;2.17;1.10;;;;;;;;;;5029755;28;20054;-44
2021/05/05 09:29:47;;;;;;;2.13;1.55;;;;;;;;;;5031598;28;20029;-43
2021/05/05 09:32:17;;;;;;;1.02;1.02;;;;;;;;;;5029588;28;20037;-43
2021/05/05 09:34:54;;;;;;;0.90;0.90;;;;;;;;;;5024129;28;20047;-44
2021/05/05 09:37:21;;;;;;;1.00;1.00;;;;;;;;;;5030641;28;20045;-44
2021/05/05 09:39:55;;;;;;;1.10;1.00;;;;;;;;;;5027403;28;20045;-44
2021/05/05 09:42:22;;;;;;;1.00;1.00;;;;;;;;;;5029292;28;20049;-43
2021/05/05 09:45:02;;;;;;;1.95;1.00;;;;;;;;;;5028636;28;20488;-46
2021/05/05 09:47:47;;;;;;;1.20;1.10;;;;;;;;;;5026709;28;20079;-43
2021/05/05 09:50:31;;;;;;;1.23;1.20;;;;;;;;;;5012711;28;20041;-43
2021/05/05 09:53:17;;;;;;;3.50;1.48;;;;;;;;;;5030008;28;20033;-44
2021/05/05 09:55:44;;;;;;;1.70;1.15;;;;;;;;;;5028678;28;20386;-44
2021/05/05 09:58:32;;;;;;;1.77;1.00;;;;;;;;;;5030562;28;20106;-43
2021/05/05 10:01:05;;;;;;;1.00;1.00;;;;;;;;;;5020398;28;20049;-44
2021/05/05 10:03:38;;;;;;;1.35;1.35;;;;;;;;;;5021907;28;20435;-43
2021/05/05 10:06:23;;;;;;;6.90;1.65;;;;;;;;;;5021590;28;20046;-44
2021/05/05 10:08:54;;;;;;;5.07;1.20;;;;;;;;;;5027146;28;20048;-42
2021/05/05 10:11:23;;;;;;;1.10;1.10;;;;;;;;;;5029063;28;20035;-44
2021/05/05 10:13:55;;;;;;;1.52;1.00;;;;;;;;;;5025212;28;20045;-43
2021/05/05 10:16:21;;;;;;;1.10;1.10;;;;;;;;;;5019837;28;20033;-45
2021/05/05 10:18:48;;;;;;;1.10;1.10;;;;;;;;;;5025692;28;20033;-44
2021/05/05 10:21:18;;;;;;;2.25;1.75;;;;;;;;;;5027739;28;20041;-43
2021/05/05 10:23:44;;;;;;;1.00;1.00;;;;;;;;;;5028485;28;20508;-44
2021/05/05 10:26:11;;;;;;;1.10;1.10;;;;;;;;;;5025613;28;20095;-43
2021/05/05 10:28:39;;;;;;;1.05;1.05;;;;;;;;;;5027942;28;20064;-43
2021/05/05 10:31:08;;;;;;;3.55;1.20;;;;;;;;;;5026936;28;20038;-47
2021/05/05 10:33:39;;;;;;;1.10;1.10;;;;;;;;;;5028434;28;20697;-43
2021/05/05 10:36:24;;;;;;;1.67;1.10;;;;;;;;;;5027369;28;20041;-44
2021/05/05 10:38:50;;;;;;;1.10;1.10;;;;;;;;;;5026730;28;20053;-46
2021/05/05 10:41:17;;;;;;;1.10;1.00;;;;;;;;;;5024852;28;20041;-43
2021/05/05 10:43:46;;;;;;;1.65;1.20;;;;;;;;;;5029395;28;20448;-44
2021/05/05 10:46:48;;;;;;;1.20;1.20;;;;;;;;;;5017818;28;20049;-44
2021/05/05 10:49:16;;;;;;;1.35;1.02;;;;;;;;;;5025389;28;20076;-47
2021/05/05 10:51:45;;;;;;;0.90;0.90;;;;;;;;;;5023725;28;20049;-44
2021/05/05 10:54:12;;;;;;;2.67;1.25;;;;;;;;;;5029312;28;20041;-43
2021/05/05 10:56:38;;;;;;;1.00;1.00;;;;;;;;;;5026821;28;20521;-47
2021/05/05 10:59:10;;;;;;;1.00;1.00;;;;;;;;;;5028478;28;20041;-44
2021/05/05 11:01:46;;;;;;;1.02;1.00;;;;;;;;;;5029700;28;20188;-44
2021/05/05 11:04:16;;;;;;;1.10;1.10;;;;;;;;;;5029167;28;20445;-43
2021/05/05 11:06:42;;;;;;;1.17;1.08;;;;;;;;;;5020965;28;20046;-43
2021/05/05 11:09:16;;;;;;;1.20;1.00;;;;;;;;;;5025542;28;20037;-43
2021/05/05 11:11:48;;;;;;;1.23;1.23;;;;;;;;;;5030460;28;20045;-42
2021/05/05 11:14:23;;;;;;;2.75;1.80;;;;;;;;;;5031029;28;20470;-45
2021/05/05 11:17:09;;;;;;;1.00;1.00;;;;;;;;;;5034298;28;20203;-43
2021/05/05 11:19:40;;;;;;;1.00;1.00;;;;;;;;;;5019935;28;20449;-44
2021/05/05 11:22:07;;;;;;;1.10;1.10;;;;;;;;;;5029577;28;20054;-46
2021/05/05 11:24:35;;;;;;;1.83;1.10;;;;;;;;;;5022603;28;20088;-44
2021/05/05 11:27:02;;;;;;;1.88;1.17;;;;;;;;;;5020449;28;20045;-48
2021/05/05 11:29:29;;;;;;;3.70;1.05;;;;;;;;;;5028470;28;20417;-46
2021/05/05 11:31:55;;;;;;;1.58;1.00;;;;;;;;;;5031035;28;20545;-47
2021/05/05 11:34:25;;;;;;;1.50;1.38;;;;;;;;;;5023317;28;20034;-46
2021/05/05 11:37:16;;;;;;;1.30;1.20;;;;;;;;;;5026501;28;20111;-44
2021/05/05 11:39:45;;;;;;;1.15;1.15;;;;;;;;;;5030288;28;20045;-48
2021/05/05 11:42:25;;;;;;;1.25;1.00;;;;;;;;;;5023019;28;20053;-43
2021/05/05 11:45:10;;;;;;;0.95;0.95;;;;;;;;;;5032121;28;20044;-44
2021/05/05 11:47:42;;;;;;;1.00;1.00;;;;;;;;;;5031914;28;20064;-43
2021/05/05 11:50:20;;;;;;;1.75;1.20;;;;;;;;;;5030864;28;20046;-44
2021/05/05 11:52:48;;;;;;;1.23;1.13;;;;;;;;;;5022416;28;20125;-44
2021/05/05 11:55:16;;;;;;;1.10;1.10;;;;;;;;;;5032281;28;20563;-43
2021/05/05 11:57:44;;;;;;;2.92;1.00;;;;;;;;;;5026603;28;20049;-44
2021/05/05 12:00:18;;;;;;;5.95;1.00;;;;;;;;;;5017269;28;20037;-44
2021/05/05 12:02:49;;;;;;;1.10;1.00;;;;;;;;;;5031432;28;20080;-44
2021/05/05 12:05:36;;;;;;;3.60;1.00;;;;;;;;;;5027313;28;20351;-43
2021/05/05 12:08:13;;;;;;;5.15;1.35;;;;;;;;;;5015483;28;20037;-43
2021/05/05 12:10:46;;;;;;;1.63;1.08;;;;;;;;;;5031541;28;20477;-43
2021/05/05 12:13:12;;;;;;;;;;;;;;;;;;5029924;28;20045;-44
2021/05/05 12:15:42;;;;;;;1.42;1.30;;;;;;;;;;5035786;28;19951;-44
2021/05/05 12:18:13;;;;;;;1.55;1.08;;;;;;;;;;5029967;28;20102;-44
2021/05/05 12:20:39;;;;;;;1.73;1.25;;;;;;;;;;5026328;28;20370;-45
2021/05/05 12:23:05;;;;;;;1.20;1.10;;;;;;;;;;5026533;28;20046;-44
2021/05/05 12:25:32;;;;;;;2.55;1.40;;;;;;;;;;5029856;28;20049;-43
2021/05/05 12:28:03;;;;;;;1.60;1.60;;;;;;;;;;5029588;28;20041;-45
2021/05/05 12:30:36;;;;;;;1.52;1.00;;;;;;;;;;5031253;28;20080;-44
2021/05/05 12:33:03;;;;;;;;;;;;;;;;;;5029894;28;20029;-44
2021/05/05 12:35:29;;;;;;;1.85;1.25;;;;;;;;;;5026520;28;20550;-44
2021/05/05 12:37:56;;;;;;;1.88;1.10;;;;;;;;;;5027696;28;20461;-45
2021/05/05 12:40:24;;;;;;;1.10;1.00;;;;;;;;;;5030618;28;20037;-45
2021/05/05 12:42:50;;;;;;;1.00;1.00;;;;;;;;;;5030585;28;20044;-45
2021/05/05 12:45:17;;;;;;;0.95;0.90;;;;;;;;;;5028367;28;20589;-47
2021/05/05 12:47:44;;;;;;;1.13;1.08;;;;;;;;;;5030855;28;20041;-44
2021/05/05 12:50:11;;;;;;;3.42;1.20;;;;;;;;;;5027438;28;20797;-45
2021/05/05 12:52:39;;;;;;;5.05;1.35;;;;;;;;;;5015645;28;20056;-45
2021/05/05 12:55:25;;;;;;;1.67;1.48;;;;;;;;;;5028893;28;20057;-44
2021/05/05 12:58:23;;;;;;;1.10;1.10;;;;;;;;;;5027244;28;20034;-45
2021/05/05 13:00:52;;;;;;;2.05;1.00;;;;;;;;;;5034631;28;20195;-49
2021/05/05 13:03:19;;;;;;;4.57;1.17;;;;;;;;;;5048697;28;20053;-46
2021/05/05 13:05:54;;;;;;;2.05;1.10;;;;;;;;;;5047502;28;20130;-46
2021/05/05 13:08:29;;;;;;;2.08;0.90;;;;;;;;;;5047583;28;20041;-45
2021/05/05 13:10:57;;;;;;;4.20;0.88;;;;;;;;;;5047745;28;20091;-46
2021/05/05 13:13:40;;;;;;;1.33;1.10;;;;;;;;;;5047618;28;20049;-46
2021/05/05 13:30:36;;;;;;;2.33;0.90;;;;;;;;;;5046835;28;20044;-45
2021/05/05 13:33:07;;;;;;;0.98;0.95;;;;;;;;;;5033659;28;20041;-45
2021/05/05 13:35:41;;;;;;;0.90;0.90;;;;;;;;;;5044558;28;20045;-47
2021/05/05 13:38:08;;;;;;;1.00;1.00;;;;;;;;;;5023089;28;20049;-44
2021/05/05 13:40:40;;;;;;;4.50;1.15;;;;;;;;;;5024217;28;20038;-44
2021/05/05 13:51:05;;;;;;;2.78;1.00;;;;;;;;;;5030222;28;20040;-46
2021/05/05 13:53:32;;;;;;;0.98;0.98;;;;;;;;;;5021982;28;20042;-46
2021/05/05 13:55:58;;;;;;;1.48;0.90;;;;;;;;;;5016360;28;20478;-44
2021/05/05 13:58:24;;;;;;;1.10;1.10;;;;;;;;;;5024146;28;20037;-45
2021/05/05 14:00:50;;;;;;;2.92;1.10;;;;;;;;;;5013461;28;20660;-45
2021/05/05 14:03:17;;;;;;;8.25;1.67;;;;;;;;;;5029601;28;20124;-46
2021/05/05 14:05:47;;;;;;;1.23;1.17;;;;;;;;;;5027153;28;20489;-48
2021/05/05 14:08:13;;;;;;;1.60;1.10;;;;;;;;;;5023719;28;20084;-44
2021/05/05 14:10:39;;;;;;;1.00;1.00;;;;;;;;;;5025803;28;20053;-44
2021/05/05 14:13:06;;;;;;;0.93;0.93;;;;;;;;;;5014134;28;20121;-44
2021/05/05 14:15:37;;;;;;;2.40;1.15;;;;;;;;;;5029735;28;20501;-44
2021/05/05 14:18:04;;;;;;;3.80;1.00;;;;;;;;;;5027615;28;20158;-44
2021/05/05 14:20:31;;;;;;;1.15;1.00;;;;;;;;;;5027845;28;20472;-47
2021/05/05 14:22:57;;;;;;;3.55;1.20;;;;;;;;;;5026902;28;20041;-46
2021/05/05 14:25:23;;;;;;;1.55;1.50;;;;;;;;;;5028866;28;20061;-44
2021/05/05 14:27:53;;;;;;;2.05;0.93;;;;;;;;;;5019690;28;20133;-45
2021/05/05 14:30:20;;;;;;;2.25;1.50;;;;;;;;;;5021861;28;20041;-45
2021/05/05 14:32:46;;;;;;;1.98;1.00;;;;;;;;;;5029993;28;20030;-45
2021/05/05 14:35:14;;;;;;;1.10;1.10;;;;;;;;;;5027125;28;20049;-44
2021/05/05 14:37:41;;;;;;;7.05;1.63;;;;;;;;;;5028548;28;20505;-44
2021/05/05 14:40:10;;;;;;;2.75;2.00;;;;;;;;;;5029740;28;20037;-44
2021/05/05 14:42:40;;;;;;;1.42;1.10;;;;;;;;;;5026031;28;20034;-46
2021/05/05 14:50:35;;;;;;;2.58;0.90;;;;;;;;;;5025583;28;20466;-47
2021/05/05 14:53:02;;;;;;;0.90;0.90;;;;;;;;;;5023670;28;20116;-44
2021/05/05 14:55:30;;;;;;;2.28;1.10;;;;;;;;;;5027474;28;20044;-46
2021/05/05 14:58:04;;;;;;;1.13;1.00;;;;;;;;;;5015948;28;20370;-46
2021/05/05 15:00:30;;;;;;;1.23;1.10;;;;;;;;;;5028301;28;20388;-47
2021/05/05 15:02:57;;;;;;;2.55;1.00;;;;;;;;;;5026880;28;20040;-49
2021/05/05 15:05:38;;;;;;;2.80;0.90;;;;;;;;;;5014888;28;20069;-45
2021/05/05 15:08:09;;;;;;;2.35;1.08;;;;;;;;;;5029494;28;20033;-45
2021/05/05 15:13:28;;;;;;;4.18;1.10;;;;;;;;;;5029568;28;20347;-45
2021/05/05 15:19:07;;;;;;;1.48;0.90;;;;;;;;;;5023560;28;20542;-46
2021/05/05 15:37:37;;;;;;;1.38;0.90;;;;;;;;;;5027811;28;20383;-47
2021/05/05 15:40:08;;;;;;;1.35;1.10;;;;;;;;;;5029958;28;20037;-45
2021/05/05 15:42:37;;;;;;;1.65;1.00;;;;;;;;;;5020042;28;20124;-52
2021/05/05 15:45:08;;;;;;;1.83;1.00;;;;;;;;;;5023823;28;20120;-45